Time;durP1;ratioP1;P1;durP2;ratioP2;P2;SDS_P1;SDS_P2;PMS_P1;PMS_P2;Temp;Humidity;BMP_temperature;BMP_pressure;BME280_temperature;BME280_humidity;BME280_pressure;Samples;Min_cycle;Max_cycle;Signal;HPM_P1;HPM_P2
2023/07/07 00:01:48;;;;;;;6.05;5.30;;;;;;;14.93;84.46;101711.78;5035800;28;20046;-73
2023/07/07 00:04:13;;;;;;;6.18;5.18;;;;;;;14.88;85.10;101713.88;5032167;28;20021;-71
2023/07/07 00:06:41;;;;;;;6.70;5.07;;;;;;;14.87;84.56;101705.91;5040655;28;20147;-68
2023/07/07 00:09:07;;;;;;;5.55;4.90;;;;;;;14.87;85.17;101708.56;5037426;28;20082;-70
2023/07/07 00:11:32;;;;;;;7.65;5.50;;;;;;;14.76;85.73;101717.22;5036713;28;20029;-70
2023/07/07 00:13:58;;;;;;;5.57;5.07;;;;;;;14.77;85.39;101710.03;5035211;28;20036;-73
2023/07/07 00:16:27;;;;;;;7.65;5.20;;;;;;;14.69;86.10;101714.00;5039996;28;20079;-68
2023/07/07 00:18:56;;;;;;;6.82;5.03;;;;;;;14.66;86.38;101711.47;5029430;28;20107;-74
2023/07/07 00:21:24;;;;;;;7.78;4.97;;;;;;;14.62;86.99;101717.09;5037684;28;20056;-73
2023/07/07 00:23:55;;;;;;;6.72;5.18;;;;;;;14.62;86.68;101717.94;5041433;28;20369;-69
2023/07/07 00:26:22;;;;;;;8.10;5.30;;;;;;;14.50;87.35;101720.41;5038281;28;20036;-71
2023/07/07 00:28:48;;;;;;;5.93;5.28;;;;;;;14.48;87.31;101714.25;5030695;28;20029;-74
2023/07/07 00:31:15;;;;;;;7.85;4.82;;;;;;;14.45;87.99;101715.28;5036045;28;20039;-70
2023/07/07 00:33:40;;;;;;;5.15;4.63;;;;;;;14.41;87.79;101714.56;5025738;28;20405;-71
2023/07/07 00:36:06;;;;;;;5.82;5.22;;;;;;;14.32;87.88;101722.22;5037802;28;20555;-71
2023/07/07 00:38:31;;;;;;;6.38;5.28;;;;;;;14.30;88.17;101708.94;5031406;28;20037;-71
2023/07/07 00:41:01;;;;;;;5.85;4.72;;;;;;;14.26;88.54;101711.88;5035954;28;20035;-72
2023/07/07 00:43:26;;;;;;;7.78;5.15;;;;;;;14.24;88.74;101719.09;5037681;28;20445;-67
2023/07/07 00:45:52;;;;;;;6.40;4.70;;;;;;;14.26;88.18;101709.19;5035838;28;20017;-68
2023/07/07 00:48:38;;;;;;;6.78;4.75;;;;;;;14.17;88.98;101719.44;5038449;28;20083;-71
2023/07/07 00:51:14;;;;;;;7.00;5.22;;;;;;;14.18;89.46;101721.16;5044581;28;20045;-70
2023/07/07 00:53:45;;;;;;;7.03;5.45;;;;;;;14.15;89.60;101715.94;5039089;28;20036;-67
2023/07/07 00:56:20;;;;;;;8.18;5.90;;;;;;;14.09;89.78;101713.59;5034470;28;20056;-69
2023/07/07 00:58:45;;;;;;;11.07;9.68;;;;;;;14.13;88.90;101714.31;5034133;28;20021;-70
2023/07/07 01:01:17;;;;;;;16.13;14.40;;;;;;;14.05;89.35;101714.72;5031867;28;20032;-71
2023/07/07 01:03:48;;;;;;;20.13;15.90;;;;;;;14.03;89.58;101713.03;5038874;28;20071;-69
2023/07/07 01:06:17;;;;;;;20.45;17.30;;;;;;;14.06;89.21;101718.25;5031626;28;20032;-71
2023/07/07 01:08:47;;;;;;;25.27;22.30;;;;;;;14.04;88.62;101728.16;5037634;28;20231;-70
2023/07/07 01:11:13;;;;;;;25.95;22.90;;;;;;;14.00;88.85;101721.22;5035108;28;20039;-72
2023/07/07 01:13:38;;;;;;;28.83;23.80;;;;;;;13.98;88.59;101720.44;5025556;28;20025;-70
2023/07/07 01:16:37;;;;;;;29.85;24.55;;;;;;;14.00;88.51;101727.44;5040503;28;20507;-71
2023/07/07 01:19:15;;;;;;;28.17;24.40;;;;;;;13.92;88.67;101721.63;5026791;28;20041;-73
2023/07/07 01:22:19;;;;;;;28.02;24.95;;;;;;;13.94;88.03;101719.72;5040778;28;20029;-72
2023/07/07 01:24:59;;;;;;;30.42;25.80;;;;;;;13.93;88.71;101721.53;5020914;28;20525;-74
2023/07/07 01:28:07;;;;;;;29.08;24.83;;;;;;;13.84;88.17;101714.00;5032302;28;20037;-74
2023/07/07 01:30:44;;;;;;;24.48;21.10;;;;;;;13.78;89.04;101718.78;5031396;28;20439;-67
2023/07/07 01:33:15;;;;;;;20.50;18.33;;;;;;;13.75;89.67;101714.44;5036244;28;20242;-70
2023/07/07 01:35:40;;;;;;;18.67;16.83;;;;;;;13.69;89.90;101709.41;5029819;28;20598;-67
2023/07/07 01:38:06;;;;;;;17.73;15.85;;;;;;;13.67;90.31;101711.31;5053178;28;20029;-72
2023/07/07 01:40:43;;;;;;;17.60;15.63;;;;;;;13.59;90.99;101719.72;5029827;28;20194;-70
2023/07/07 01:43:23;;;;;;;17.90;15.73;;;;;;;13.54;90.98;101707.47;5033787;28;20575;-72
2023/07/07 01:46:14;;;;;;;17.95;15.57;;;;;;;13.55;90.20;101706.56;5029153;28;20021;-72
2023/07/07 01:48:46;;;;;;;16.83;15.02;;;;;;;13.40;91.36;101711.69;5032795;28;20350;-68
2023/07/07 01:51:13;;;;;;;19.30;15.85;;;;;;;13.46;91.41;101710.56;5037950;28;20033;-73
2023/07/07 01:53:44;;;;;;;17.95;15.55;;;;;;;13.46;91.12;101715.91;5033190;28;20442;-70
2023/07/07 01:56:13;;;;;;;17.75;15.82;;;;;;;13.43;91.17;101722.25;5026363;28;20025;-69
2023/07/07 01:58:41;;;;;;;16.73;14.73;;;;;;;13.43;91.72;101710.69;5029436;28;20495;-72
2023/07/07 02:01:06;;;;;;;17.77;15.45;;;;;;;13.38;91.95;101712.75;5034807;28;20025;-73
2023/07/07 02:03:32;;;;;;;18.25;15.82;;;;;;;13.33;92.28;101710.25;5034934;28;20029;-68
2023/07/07 02:05:57;;;;;;;18.88;15.30;;;;;;;13.28;92.59;101706.09;5035463;28;20021;-75
2023/07/07 02:08:23;;;;;;;19.40;17.40;;;;;;;13.25;92.61;101707.13;5036394;28;20033;-75
2023/07/07 02:10:48;;;;;;;17.17;15.32;;;;;;;13.21;92.29;101700.16;5036817;28;20044;-68
2023/07/07 02:13:13;;;;;;;18.98;15.80;;;;;;;13.25;92.34;101701.78;5039780;28;20256;-75
2023/07/07 02:15:39;;;;;;;17.70;15.77;;;;;;;13.21;92.29;101697.47;5035961;28;20044;-72
2023/07/07 02:18:04;;;;;;;19.00;15.55;;;;;;;13.21;92.54;101695.69;5037552;28;20021;-69
2023/07/07 02:20:31;;;;;;;16.50;14.70;;;;;;;13.13;92.68;101699.66;5033342;28;20087;-73
2023/07/07 02:22:56;;;;;;;16.65;13.88;;;;;;;13.15;92.65;101700.44;5031106;28;20051;-74
2023/07/07 02:25:22;;;;;;;14.52;12.57;;;;;;;13.16;92.98;101697.69;5035260;28;20498;-72
2023/07/07 02:27:47;;;;;;;17.67;12.00;;;;;;;13.18;92.61;101702.97;5036413;28;20033;-73
2023/07/07 02:30:13;;;;;;;13.73;12.30;;;;;;;13.09;93.07;101698.06;5038446;28;20029;-75
2023/07/07 02:32:39;;;;;;;15.15;11.95;;;;;;;13.14;92.72;101698.72;5037436;28;20087;-72
2023/07/07 02:35:06;;;;;;;13.98;11.60;;;;;;;13.11;92.74;101704.19;5025202;28;20018;-69
2023/07/07 02:37:32;;;;;;;13.02;11.68;;;;;;;13.05;93.42;101710.72;5032049;28;20124;-67
2023/07/07 02:39:57;;;;;;;14.45;11.55;;;;;;;12.99;93.05;101692.28;5036538;28;20109;-70
2023/07/07 02:42:23;;;;;;;12.55;11.25;;;;;;;13.01;93.29;101708.25;5035275;28;20484;-71
2023/07/07 02:44:48;;;;;;;13.02;11.63;;;;;;;12.94;93.85;101705.84;5033131;28;20033;-71
2023/07/07 02:47:14;;;;;;;13.50;12.10;;;;;;;12.96;93.87;101712.00;5031293;28;20041;-71
2023/07/07 02:49:39;;;;;;;14.85;11.85;;;;;;;12.95;93.87;101704.03;5031573;28;20033;-68
2023/07/07 02:52:06;;;;;;;14.57;12.13;;;;;;;12.96;93.94;101711.16;5040657;28;20040;-69
2023/07/07 02:54:31;;;;;;;15.00;12.63;;;;;;;12.84;94.56;101712.59;5037336;28;20028;-72
2023/07/07 02:56:57;;;;;;;14.43;11.45;;;;;;;12.85;94.29;101714.31;5030434;28;20033;-74
2023/07/07 02:59:22;;;;;;;13.15;11.60;;;;;;;12.83;94.56;101709.97;5031005;28;20273;-71
2023/07/07 03:01:48;;;;;;;13.07;11.60;;;;;;;12.79;94.83;101722.63;5028099;28;20884;-75
2023/07/07 03:04:13;;;;;;;11.73;10.63;;;;;;;12.78;94.81;101723.53;5026816;28;20495;-74
2023/07/07 03:06:39;;;;;;;11.52;9.88;;;;;;;12.70;94.86;101725.69;5022855;28;20033;-74
2023/07/07 03:09:05;;;;;;;11.73;9.32;;;;;;;12.77;94.09;101724.47;5025871;28;20030;-69
2023/07/07 03:11:31;;;;;;;11.98;10.57;;;;;;;12.69;95.45;101729.31;5040354;28;20047;-69
2023/07/07 03:13:57;;;;;;;15.68;11.80;;;;;;;12.60;95.94;101727.91;5034186;28;20025;-75
2023/07/07 03:16:30;;;;;;;12.77;10.80;;;;;;;12.64;95.77;101736.66;5040618;28;20064;-72
2023/07/07 03:18:57;;;;;;;13.05;10.95;;;;;;;12.67;95.84;101736.53;5034204;28;20021;-69
2023/07/07 03:21:23;;;;;;;11.73;10.23;;;;;;;12.57;96.02;101735.19;5042099;28;20367;-68
2023/07/07 03:23:55;;;;;;;12.02;10.73;;;;;;;12.54;95.96;101736.22;5032390;28;20035;-70
2023/07/07 03:26:22;;;;;;;11.07;9.90;;;;;;;12.52;95.85;101732.75;5034026;28;20118;-72
2023/07/07 03:28:48;;;;;;;11.90;10.07;;;;;;;12.50;96.31;101742.63;5037405;28;20628;-70
2023/07/07 03:31:22;;;;;;;12.50;10.15;;;;;;;12.56;95.96;101736.16;5042451;28;20059;-74
2023/07/07 03:33:49;;;;;;;13.43;11.05;;;;;;;12.49;96.19;101737.34;5035922;28;20051;-72
2023/07/07 03:36:16;;;;;;;12.63;9.90;;;;;;;12.44;96.47;101738.41;5038713;28;20036;-74
2023/07/07 03:38:42;;;;;;;11.25;9.52;;;;;;;12.39;96.78;101735.09;5037702;28;20025;-68
2023/07/07 03:41:14;;;;;;;11.13;9.05;;;;;;;12.31;97.49;101734.56;5039503;28;20040;-71
2023/07/07 03:43:44;;;;;;;10.77;9.13;;;;;;;12.42;97.74;101726.09;5042172;28;20037;-73
2023/07/07 03:46:14;;;;;;;10.55;8.45;;;;;;;12.44;96.90;101730.41;5030327;28;20052;-71
2023/07/07 03:48:39;;;;;;;9.48;8.48;;;;;;;12.38;96.98;101733.38;5026397;28;20025;-71
2023/07/07 03:51:05;;;;;;;10.52;8.02;;;;;;;12.40;96.79;101727.94;5038694;28;20086;-72
2023/07/07 03:53:33;;;;;;;8.85;7.95;;;;;;;12.38;97.44;101729.84;5025318;28;20032;-72
2023/07/07 03:55:59;;;;;;;8.93;7.97;;;;;;;12.35;97.79;101732.63;5023737;28;20099;-70
2023/07/07 03:58:26;;;;;;;11.68;8.80;;;;;;;12.43;97.24;101731.34;5024341;28;20021;-73
2023/07/07 04:00:52;;;;;;;9.65;8.65;;;;;;;12.42;97.41;101726.94;5038565;28;20033;-74
2023/07/07 04:03:19;;;;;;;11.32;8.40;;;;;;;12.42;97.63;101731.44;5030023;28;20494;-69
2023/07/07 04:05:49;;;;;;;8.68;7.78;;;;;;;12.43;97.88;101730.50;5040662;28;20033;-73
2023/07/07 04:08:21;;;;;;;9.40;8.43;;;;;;;12.48;96.61;101731.13;5032033;28;20040;-75
2023/07/07 04:10:58;;;;;;;9.53;8.53;;;;;;;12.48;96.74;101730.28;5027146;28;20025;-73
2023/07/07 04:13:23;;;;;;;10.45;8.07;;;;;;;12.47;97.10;101729.41;5028494;28;20611;-73
2023/07/07 04:16:07;;;;;;;10.70;8.35;;;;;;;12.52;96.84;101737.22;5035651;28;20044;-73
2023/07/07 04:18:33;;;;;;;10.32;7.95;;;;;;;12.55;96.30;101739.75;5035815;28;20041;-73
2023/07/07 04:21:00;;;;;;;11.18;8.10;;;;;;;12.60;96.45;101737.75;5039266;28;20197;-73
2023/07/07 04:23:26;;;;;;;9.63;8.30;;;;;;;12.59;96.49;101738.69;5035243;28;20119;-71
2023/07/07 04:25:52;;;;;;;9.68;8.63;;;;;;;12.65;96.28;101746.41;5037479;28;20548;-68
2023/07/07 04:28:17;;;;;;;9.55;8.10;;;;;;;12.66;95.64;101734.78;5034723;28;20029;-72
2023/07/07 04:30:44;;;;;;;11.18;8.55;;;;;;;12.67;96.48;101741.88;5040042;28;20047;-67
2023/07/07 04:33:09;;;;;;;9.95;8.45;;;;;;;12.71;96.29;101749.69;5036360;28;20032;-74
2023/07/07 04:35:36;;;;;;;9.07;8.10;;;;;;;12.75;96.50;101744.19;5038678;28;20078;-70
2023/07/07 04:38:01;;;;;;;10.50;8.15;;;;;;;12.80;96.35;101745.72;5029652;28;20029;-68
2023/07/07 04:40:31;;;;;;;9.57;7.97;;;;;;;12.82;94.94;101746.50;5037286;28;20490;-73
2023/07/07 04:42:56;;;;;;;9.50;8.55;;;;;;;12.87;95.97;101744.47;5025128;28;20025;-72
2023/07/07 04:45:22;;;;;;;8.52;7.65;;;;;;;12.87;95.46;101741.81;5033021;28;20029;-68
2023/07/07 04:47:47;;;;;;;10.48;7.93;;;;;;;12.93;94.91;101751.38;5039065;28;20057;-70
2023/07/07 04:50:16;;;;;;;10.15;7.80;;;;;;;13.04;94.88;101750.84;5047679;28;20024;-67
2023/07/07 04:52:42;;;;;;;9.73;8.45;;;;;;;13.03;94.64;101743.78;5037517;28;20021;-71
2023/07/07 04:55:08;;;;;;;12.45;8.00;;;;;;;13.11;94.52;101737.13;5046731;28;20056;-74
2023/07/07 04:57:33;;;;;;;12.10;7.55;;;;;;;13.16;93.36;101732.44;5039451;28;20467;-72
2023/07/07 04:59:58;;;;;;;10.27;8.20;;;;;;;13.26;92.57;101730.25;5034444;28;20058;-72
2023/07/07 05:02:24;;;;;;;9.57;7.78;;;;;;;13.31;91.52;101736.22;5039744;28;20061;-71
2023/07/07 05:04:49;;;;;;;11.18;8.32;;;;;;;13.44;91.28;101737.34;5038404;28;20118;-71
2023/07/07 05:07:15;;;;;;;10.57;7.35;;;;;;;13.50;91.05;101733.50;5031633;28;20376;-72
2023/07/07 05:09:40;;;;;;;10.82;7.30;;;;;;;13.60;90.17;101739.28;5031807;28;20857;-69
2023/07/07 05:12:08;;;;;;;9.48;7.45;;;;;;;13.71;89.40;101739.63;5037965;28;20021;-69
2023/07/07 05:14:34;;;;;;;10.25;7.60;;;;;;;13.80;88.99;101746.34;5038166;28;20039;-72
2023/07/07 05:16:59;;;;;;;8.82;7.32;;;;;;;13.94;89.06;101739.31;5035568;28;20034;-69
2023/07/07 05:19:25;;;;;;;11.23;7.07;;;;;;;14.04;89.78;101744.22;5024850;28;20032;-69
2023/07/07 05:21:50;;;;;;;8.15;7.28;;;;;;;14.10;89.41;101749.25;5036501;28;20040;-71
2023/07/07 05:24:16;;;;;;;8.20;7.28;;;;;;;14.19;88.13;101744.28;5038175;28;20025;-69
2023/07/07 05:26:41;;;;;;;9.80;7.10;;;;;;;14.25;87.32;101729.72;5039106;28;20463;-72
2023/07/07 05:29:06;;;;;;;9.30;7.68;;;;;;;14.43;87.85;101746.66;5037622;28;20374;-73
2023/07/07 05:31:33;;;;;;;9.43;7.03;;;;;;;14.55;86.93;101750.53;5037039;28;20442;-73
2023/07/07 05:33:58;;;;;;;8.75;6.85;;;;;;;14.66;86.22;101751.66;5034397;28;20066;-71
2023/07/07 05:36:24;;;;;;;8.57;6.82;;;;;;;14.75;85.31;101746.75;5039396;28;20459;-67
2023/07/07 05:38:50;;;;;;;9.20;6.80;;;;;;;14.88;86.17;101748.72;5022715;28;20289;-71
2023/07/07 05:41:15;;;;;;;6.97;6.28;;;;;;;15.00;82.36;101751.66;5034729;28;20063;-71
2023/07/07 05:43:41;;;;;;;8.70;6.70;;;;;;;15.11;82.88;101751.94;5039880;28;20423;-71
2023/07/07 05:46:13;;;;;;;9.80;6.30;;;;;;;15.23;82.89;101753.94;5034962;28;20060;-72
2023/07/07 05:48:39;;;;;;;8.45;6.32;;;;;;;15.40;81.31;101761.91;5025715;28;20018;-70
2023/07/07 05:51:06;;;;;;;7.60;5.85;;;;;;;15.56;79.11;101761.03;5031159;28;20550;-70
2023/07/07 05:53:32;;;;;;;9.68;6.75;;;;;;;15.70;78.67;101747.72;5031282;28;20025;-69
2023/07/07 05:56:08;;;;;;;9.50;6.10;;;;;;;15.90;79.05;101754.63;5047455;28;20119;-70
2023/07/07 05:58:34;;;;;;;11.50;6.57;;;;;;;16.05;77.33;101761.78;5032568;28;20250;-73
2023/07/07 06:00:59;;;;;;;7.00;5.97;;;;;;;16.18;76.50;101760.09;5030654;28;20503;-73
2023/07/07 06:03:25;;;;;;;8.48;6.13;;;;;;;16.43;76.27;101762.16;5037929;28;20039;-71
2023/07/07 06:05:50;;;;;;;7.57;6.15;;;;;;;16.63;74.90;101754.66;5031796;28;20028;-73
2023/07/07 06:08:15;;;;;;;8.65;6.15;;;;;;;16.77;72.85;101760.09;5034857;28;20495;-75
2023/07/07 06:10:41;;;;;;;8.75;5.88;;;;;;;16.97;71.05;101761.56;5039167;28;20047;-71
2023/07/07 06:13:06;;;;;;;7.75;5.82;;;;;;;17.28;69.79;101757.75;5026447;28;20273;-69
2023/07/07 06:15:32;;;;;;;8.50;5.88;;;;;;;17.52;68.90;101758.00;5029790;28;20549;-72
2023/07/07 06:17:57;;;;;;;8.32;5.28;;;;;;;17.78;67.60;101759.00;5037204;28;20132;-72
2023/07/07 06:20:23;;;;;;;8.63;5.63;;;;;;;17.91;66.13;101749.13;5037327;28;20021;-72
2023/07/07 06:22:48;;;;;;;8.55;5.60;;;;;;;18.09;66.34;101747.00;5037941;28;20399;-73
2023/07/07 06:25:14;;;;;;;9.38;5.05;;;;;;;18.40;66.58;101750.28;5033363;28;20041;-68
2023/07/07 06:27:39;;;;;;;9.63;5.20;;;;;;;18.61;64.33;101753.31;5036099;28;20029;-73
2023/07/07 06:30:07;;;;;;;7.03;5.03;;;;;;;18.78;63.52;101758.41;5037506;28;20036;-70
2023/07/07 06:32:32;;;;;;;8.43;5.50;;;;;;;19.02;62.67;101758.50;5032613;28;20347;-70
2023/07/07 06:34:58;;;;;;;7.43;4.82;;;;;;;19.25;62.67;101762.22;5038410;28;20036;-73
2023/07/07 06:37:23;;;;;;;8.27;5.03;;;;;;;19.42;61.13;101759.16;5034617;28;20051;-71
2023/07/07 06:39:49;;;;;;;8.73;5.35;;;;;;;19.54;59.65;101772.72;5032043;28;20040;-72
2023/07/07 06:42:15;;;;;;;6.70;4.63;;;;;;;19.81;59.98;101767.97;5035625;28;20475;-71
2023/07/07 06:44:40;;;;;;;9.20;4.57;;;;;;;20.10;60.06;101762.22;5030885;28;20025;-70
2023/07/07 06:47:13;;;;;;;7.97;4.40;;;;;;;20.09;57.91;101766.75;5041712;28;20115;-72
2023/07/07 06:49:39;;;;;;;6.90;4.82;;;;;;;20.32;59.20;101770.41;5032343;28;20036;-68
2023/07/07 06:52:05;;;;;;;8.23;4.80;;;;;;;20.49;57.55;101776.41;5036504;28;20405;-72
2023/07/07 06:54:30;;;;;;;7.68;5.18;;;;;;;20.56;56.21;101772.22;5028934;28;20518;-69
2023/07/07 06:56:55;;;;;;;7.45;4.05;;;;;;;20.69;57.09;101772.97;5030561;28;20460;-71
2023/07/07 06:59:21;;;;;;;6.45;4.03;;;;;;;21.00;56.93;101775.94;5037297;28;20446;-72
2023/07/07 07:01:46;;;;;;;6.82;4.50;;;;;;;21.06;54.14;101775.44;5037008;28;20485;-72
2023/07/07 07:04:11;;;;;;;4.13;3.58;;;;;;;21.12;53.12;101781.25;5046336;28;20032;-71
2023/07/07 07:06:37;;;;;;;6.00;3.83;;;;;;;21.15;53.28;101772.00;5050985;28;20244;-71
2023/07/07 07:09:02;;;;;;;5.55;3.33;;;;;;;21.36;52.13;101777.53;5040850;28;20367;-71
2023/07/07 07:11:28;;;;;;;5.45;3.90;;;;;;;21.53;50.93;101774.34;5042547;28;20072;-71
2023/07/07 07:13:53;;;;;;;4.75;3.78;;;;;;;21.61;50.12;101768.25;5048158;28;20753;-71
2023/07/07 07:16:18;;;;;;;4.82;3.80;;;;;;;21.70;50.15;101778.34;5042316;28;20035;-73
2023/07/07 07:18:47;;;;;;;6.60;3.97;;;;;;;21.89;49.89;101780.38;5046865;28;20110;-67
2023/07/07 07:21:12;;;;;;;5.40;3.70;;;;;;;22.02;50.17;101777.50;5031319;28;20502;-74
2023/07/07 07:23:38;;;;;;;4.82;3.33;;;;;;;22.44;50.43;101780.25;5044198;28;20025;-73
2023/07/07 07:26:04;;;;;;;6.03;3.40;;;;;;;22.57;48.13;101770.06;5036862;28;20334;-75
2023/07/07 07:28:30;;;;;;;5.97;3.55;;;;;;;22.91;47.13;101781.59;5035972;28;20125;-68
2023/07/07 07:30:55;;;;;;;4.60;3.22;;;;;;;23.15;48.16;101783.97;5044450;28;20595;-73
2023/07/07 07:33:22;;;;;;;5.40;3.25;;;;;;;23.72;45.78;101779.72;5043929;28;20103;-72
2023/07/07 07:35:48;;;;;;;7.70;3.20;;;;;;;24.22;45.36;101771.44;5040493;28;20036;-74
2023/07/07 07:38:15;;;;;;;4.45;3.25;;;;;;;24.66;44.12;101781.84;5044679;28;20020;-68
2023/07/07 07:40:41;;;;;;;4.88;3.45;;;;;;;25.09;44.10;101775.88;5042911;28;20147;-67
2023/07/07 07:43:06;;;;;;;5.80;3.40;;;;;;;25.70;41.57;101779.81;5042661;28;20036;-74
2023/07/07 07:45:31;;;;;;;4.15;3.13;;;;;;;25.98;41.37;101777.91;5040738;28;20032;-73
2023/07/07 07:47:57;;;;;;;6.00;3.22;;;;;;;26.44;41.22;101776.81;5039097;28;20049;-69
2023/07/07 07:50:24;;;;;;;4.63;3.40;;;;;;;26.76;39.29;101783.53;5046356;28;20028;-73
2023/07/07 07:52:50;;;;;;;5.40;3.40;;;;;;;26.99;38.07;101778.34;5028548;28;20045;-73
2023/07/07 07:55:15;;;;;;;6.50;3.30;;;;;;;27.41;37.82;101780.25;5040503;28;20456;-70
2023/07/07 07:57:42;;;;;;;5.95;2.92;;;;;;;28.06;36.39;101788.66;5040034;28;20040;-70
2023/07/07 08:00:08;;;;;;;4.70;3.03;;;;;;;28.40;35.80;101780.28;5034753;28;20116;-69
2023/07/07 08:02:35;;;;;;;4.43;2.80;;;;;;;28.59;34.94;101787.28;5036620;28;20033;-70
2023/07/07 08:05:00;;;;;;;11.90;3.72;;;;;;;29.32;34.59;101796.38;5037452;28;20033;-69
2023/07/07 08:07:26;;;;;;;30.77;6.05;;;;;;;29.57;33.65;101794.38;5038516;28;20108;-71
2023/07/07 08:09:51;;;;;;;6.57;2.70;;;;;;;30.18;33.10;101781.63;5039156;28;20035;-70
2023/07/07 08:12:17;;;;;;;24.48;4.20;;;;;;;30.82;32.49;101794.97;5043733;28;20032;-69
2023/07/07 08:14:43;;;;;;;4.70;3.00;;;;;;;30.99;30.98;101789.09;5038365;28;20133;-70
2023/07/07 08:17:12;;;;;;;5.50;3.20;;;;;;;30.84;30.94;101788.25;5035334;28;20805;-69
2023/07/07 08:19:40;;;;;;;4.13;3.10;;;;;;;30.93;30.68;101795.34;5039497;28;20107;-71
2023/07/07 08:22:08;;;;;;;4.75;3.05;;;;;;;31.08;30.52;101800.00;5039072;28;20113;-70
2023/07/07 08:24:39;;;;;;;5.90;3.17;;;;;;;31.28;30.26;101794.78;5039775;28;20261;-71
2023/07/07 08:27:06;;;;;;;3.85;2.90;;;;;;;31.72;29.71;101795.56;5038944;28;20254;-66
2023/07/07 08:29:32;;;;;;;4.07;3.00;;;;;;;32.18;28.94;101786.94;5042358;28;20025;-67
2023/07/07 08:31:57;;;;;;;6.97;2.80;;;;;;;32.33;28.55;101794.28;5043285;28;20043;-70
2023/07/07 08:34:23;;;;;;;5.78;2.95;;;;;;;32.47;28.19;101794.22;5049016;28;20035;-67
2023/07/07 08:36:48;;;;;;;5.32;2.72;;;;;;;32.33;29.11;101794.28;5034460;28;20047;-71
2023/07/07 08:39:17;;;;;;;4.13;2.60;;;;;;;32.72;27.67;101789.13;5038728;28;20030;-67
2023/07/07 08:41:50;;;;;;;4.93;2.60;;;;;;;32.90;27.47;101796.00;5050400;28;20025;-66
2023/07/07 08:44:19;;;;;;;3.40;2.78;;;;;;;33.09;26.10;101800.84;5041701;28;20093;-71
2023/07/07 08:47:10;;;;;;;4.78;2.70;;;;;;;33.68;27.96;101800.25;5038075;28;20037;-65
2023/07/07 08:49:53;;;;;;;3.67;2.25;;;;;;;34.17;26.53;101799.13;5040993;28;20243;-70
2023/07/07 08:52:28;;;;;;;3.67;2.40;;;;;;;34.11;26.03;101799.09;5034981;28;20150;-66
2023/07/07 08:55:18;;;;;;;2.58;2.22;;;;;;;34.80;25.95;101795.09;5035376;28;20127;-71
2023/07/07 08:58:26;;;;;;;4.32;2.58;;;;;;;34.98;25.25;101795.28;5039322;28;20056;-67
2023/07/07 09:01:23;;;;;;;3.63;2.15;;;;;;;35.27;24.82;101793.91;5031010;28;20037;-70
2023/07/07 09:04:10;;;;;;;3.75;2.35;;;;;;;35.72;25.12;101793.94;5036613;28;20033;-68
2023/07/07 09:07:09;;;;;;;2.95;1.80;;;;;;;36.13;23.62;101796.25;5030477;28;21037;-71
2023/07/07 09:09:46;;;;;;;3.28;2.20;;;;;;;35.94;22.63;101797.19;5029599;28;20877;-68
2023/07/07 09:12:37;;;;;;;4.20;2.00;;;;;;;36.76;23.22;101788.91;5045905;28;20028;-69
2023/07/07 09:15:29;;;;;;;4.60;2.03;;;;;;;37.38;22.15;101795.25;5038483;28;20059;-71
2023/07/07 09:18:05;;;;;;;2.80;2.40;;;;;;;37.95;20.56;101800.50;5040454;28;20529;-70
2023/07/07 09:20:34;;;;;;;2.67;2.00;;;;;;;38.71;20.62;101791.31;5038109;28;20111;-71
2023/07/07 09:23:06;;;;;;;3.20;2.05;;;;;;;38.73;19.19;101785.50;5037250;28;20491;-69
2023/07/07 09:25:38;;;;;;;3.22;1.85;;;;;;;38.92;19.19;101792.66;5037771;28;20037;-71
2023/07/07 09:28:05;;;;;;;;;;;;;;;40.17;19.18;101796.56;5038146;28;20497;-71
2023/07/07 09:31:02;;;;;;;5.60;1.95;;;;;;;39.17;19.67;101783.16;5042919;28;19912;-68
2023/07/07 09:33:27;;;;;;;3.17;2.00;;;;;;;38.93;18.86;101788.78;5038346;28;20052;-71
2023/07/07 09:36:21;;;;;;;6.47;2.35;;;;;;;39.49;18.41;101789.13;5035884;28;20036;-67
2023/07/07 09:38:58;;;;;;;3.28;1.83;;;;;;;38.77;17.11;101793.16;5030052;28;20636;-71
2023/07/07 09:41:29;;;;;;;3.25;2.05;;;;;;;38.90;17.87;101788.41;5037964;28;20045;-70
2023/07/07 09:43:58;;;;;;;4.40;2.03;;;;;;;39.07;17.56;101784.63;5040862;28;20029;-69
2023/07/07 09:46:34;;;;;;;3.60;2.13;;;;;;;39.48;17.23;101785.50;5036322;28;20047;-73
2023/07/07 09:49:16;;;;;;;3.95;1.90;;;;;;;40.18;17.70;101775.97;5044408;28;20499;-69
2023/07/07 09:51:46;;;;;;;;;;;;;;;41.36;17.43;101784.13;5038888;28;20029;-70
2023/07/07 09:54:18;;;;;;;2.72;1.92;;;;;;;40.19;16.29;101783.25;5036269;28;19920;-70
2023/07/07 09:56:55;;;;;;;2.38;2.05;;;;;;;39.88;16.48;101779.03;5036038;28;20035;-71
2023/07/07 09:59:29;;;;;;;3.45;2.08;;;;;;;39.82;16.89;101764.16;5032896;28;20021;-68
2023/07/07 10:01:56;;;;;;;3.13;2.28;;;;;;;39.50;16.35;101783.31;5037028;28;20245;-68
2023/07/07 10:04:25;;;;;;;2.70;1.80;;;;;;;39.58;16.81;101776.50;5029180;28;20113;-70
2023/07/07 10:06:56;;;;;;;4.53;2.30;;;;;;;40.28;16.76;101783.66;5036904;28;20029;-73
2023/07/07 10:09:21;;;;;;;2.88;1.90;;;;;;;41.04;15.54;101765.28;5035372;28;20518;-71
2023/07/07 10:11:49;;;;;;;3.47;2.03;;;;;;;41.77;15.38;101776.22;5032345;28;20021;-69
2023/07/07 10:14:16;;;;;;;2.63;1.98;;;;;;;41.84;14.52;101765.66;5038550;28;20052;-67
2023/07/07 10:16:57;;;;;;;3.10;2.13;;;;;;;42.52;15.45;101765.97;5046029;28;20028;-68
2023/07/07 10:19:24;;;;;;;3.45;2.20;;;;;;;42.96;15.33;101760.91;5026157;28;20056;-70
2023/07/07 10:21:50;;;;;;;2.60;2.05;;;;;;;43.75;14.62;101756.16;5030206;28;20067;-71
2023/07/07 10:24:19;;;;;;;3.22;1.95;;;;;;;43.43;13.93;101761.94;5041278;28;20051;-70
2023/07/07 10:26:49;;;;;;;2.45;2.00;;;;;;;43.30;13.96;101757.69;5041537;28;20032;-70
2023/07/07 10:29:23;;;;;;;3.22;2.10;;;;;;;43.56;14.07;101755.00;5042246;28;20056;-68
2023/07/07 10:31:50;;;;;;;3.13;2.00;;;;;;;43.48;13.73;101759.19;5035934;28;20060;-72
2023/07/07 10:34:22;;;;;;;4.20;1.98;;;;;;;43.54;13.57;101757.25;5046615;28;20047;-70
2023/07/07 10:36:47;;;;;;;4.03;2.43;;;;;;;44.10;13.63;101754.50;5044968;28;20170;-71
2023/07/07 10:39:12;;;;;;;5.93;2.03;;;;;;;44.82;12.78;101758.06;5049745;28;20108;-69
2023/07/07 10:41:38;;;;;;;2.80;2.00;;;;;;;44.44;13.01;101752.81;5035267;28;20131;-73
2023/07/07 10:44:03;;;;;;;2.78;1.90;;;;;;;43.12;13.49;101753.44;5042866;28;20040;-73
2023/07/07 10:46:29;;;;;;;2.78;1.90;;;;;;;42.84;13.58;101751.06;5041832;28;20044;-68
2023/07/07 10:48:56;;;;;;;4.97;2.38;;;;;;;42.42;15.00;101751.91;5052522;28;20023;-73
2023/07/07 10:51:33;;;;;;;4.55;2.35;;;;;;;42.69;15.11;101749.88;5031779;28;20551;-71
2023/07/07 10:54:04;;;;;;;2.47;2.25;;;;;;;42.22;14.27;101744.19;5042560;28;20078;-72
2023/07/07 10:56:34;;;;;;;3.47;2.20;;;;;;;41.63;14.60;101742.25;5043678;28;20525;-68
2023/07/07 10:59:24;;;;;;;3.40;2.10;;;;;;;42.23;14.78;101737.53;5039415;28;20291;-69
2023/07/07 11:02:10;;;;;;;4.20;2.15;;;;;;;42.87;14.44;101745.75;5037880;28;20064;-69
2023/07/07 11:04:54;;;;;;;3.03;2.38;;;;;;;43.90;14.19;101736.56;5039381;28;20039;-72
2023/07/07 11:07:34;;;;;;;3.15;2.10;;;;;;;44.08;13.28;101731.50;5045699;28;20505;-71
2023/07/07 11:10:15;;;;;;;3.92;2.42;;;;;;;44.06;12.65;101740.19;5043627;28;20556;-70
2023/07/07 11:12:59;;;;;;;4.35;2.50;;;;;;;44.51;12.38;101746.88;5039225;28;20155;-73
2023/07/07 11:15:49;;;;;;;4.40;2.22;;;;;;;44.72;11.97;101742.09;5035728;28;20041;-69
2023/07/07 11:18:53;;;;;;;3.28;2.13;;;;;;;45.44;11.78;101737.84;5061185;28;20359;-70
2023/07/07 11:21:43;;;;;;;4.40;2.70;;;;;;;45.08;11.43;101736.34;5036185;28;20036;-68
2023/07/07 11:24:12;;;;;;;3.60;2.28;;;;;;;45.85;11.46;101739.53;5034523;28;20036;-69
2023/07/07 11:26:43;;;;;;;2.72;2.40;;;;;;;45.28;11.63;101736.25;5041513;28;20047;-70
2023/07/07 11:29:25;;;;;;;4.22;2.40;;;;;;;45.18;11.78;101723.06;5043109;28;20430;-68
2023/07/07 11:32:19;;;;;;;3.10;2.75;;;;;;;45.36;11.98;101718.78;5051045;28;20079;-68
2023/07/07 11:35:00;;;;;;;3.15;2.47;;;;;;;45.56;12.19;101719.75;5046678;28;20020;-69